sensor_id;sensor_type;location;lat;lon;timestamp;P1;durP1;ratioP1;P2;durP2;ratioP2
1601;SDS011;794;48.592;9.634;2024-03-02T00:00:59;23.77;;;14.80;;
1601;SDS011;794;48.592;9.634;2024-03-02T00:03:25;25.70;;;17.40;;
1601;SDS011;794;48.592;9.634;2024-03-02T00:05:52;25.87;;;17.70;;
1601;SDS011;794;48.592;9.634;2024-03-02T00:08:22;26.47;;;17.73;;
1601;SDS011;794;48.592;9.634;2024-03-02T00:10:51;30.47;;;18.27;;
1601;SDS011;794;48.592;9.634;2024-03-02T00:13:19;27.03;;;15.67;;
1601;SDS011;794;48.592;9.634;2024-03-02T00:15:51;24.73;;;16.17;;
1601;SDS011;794;48.592;9.634;2024-03-02T00:18:20;22.30;;;15.47;;
1601;SDS011;794;48.592;9.634;2024-03-02T00:20:52;23.80;;;15.10;;
1601;SDS011;794;48.592;9.634;2024-03-02T00:23:20;22.40;;;15.47;;
1601;SDS011;794;48.592;9.634;2024-03-02T00:25:48;26.90;;;15.17;;
1601;SDS011;794;48.592;9.634;2024-03-02T00:28:19;23.27;;;16.77;;
1601;SDS011;794;48.592;9.634;2024-03-02T00:30:58;25.33;;;16.13;;
1601;SDS011;794;48.592;9.634;2024-03-02T00:33:30;22.47;;;14.30;;
1601;SDS011;794;48.592;9.634;2024-03-02T00:35:59;20.57;;;14.57;;
1601;SDS011;794;48.592;9.634;2024-03-02T00:38:28;24.90;;;16.90;;
1601;SDS011;794;48.592;9.634;2024-03-02T00:40:55;25.03;;;14.80;;
1601;SDS011;794;48.592;9.634;2024-03-02T00:46:12;22.60;;;14.30;;
1601;SDS011;794;48.592;9.634;2024-03-02T00:48:42;20.60;;;13.50;;
1601;SDS011;794;48.592;9.634;2024-03-02T00:51:20;28.57;;;17.30;;
1601;SDS011;794;48.592;9.634;2024-03-02T00:53:47;21.60;;;14.90;;
1601;SDS011;794;48.592;9.634;2024-03-02T00:56:14;23.83;;;16.50;;
1601;SDS011;794;48.592;9.634;2024-03-02T00:58:42;28.27;;;16.50;;
1601;SDS011;794;48.592;9.634;2024-03-02T01:01:09;26.77;;;16.10;;
1601;SDS011;794;48.592;9.634;2024-03-02T01:03:38;23.80;;;14.60;;
1601;SDS011;794;48.592;9.634;2024-03-02T01:06:06;23.70;;;14.73;;
1601;SDS011;794;48.592;9.634;2024-03-02T01:08:34;23.10;;;13.87;;
1601;SDS011;794;48.592;9.634;2024-03-02T01:11:01;19.93;;;14.00;;
1601;SDS011;794;48.592;9.634;2024-03-02T01:13:28;21.13;;;13.00;;
1601;SDS011;794;48.592;9.634;2024-03-02T01:15:55;18.90;;;12.70;;
1601;SDS011;794;48.592;9.634;2024-03-02T01:18:22;19.73;;;13.07;;
1601;SDS011;794;48.592;9.634;2024-03-02T01:20:51;22.87;;;13.27;;
1601;SDS011;794;48.592;9.634;2024-03-02T01:23:20;21.90;;;15.17;;
1601;SDS011;794;48.592;9.634;2024-03-02T01:25:47;21.87;;;12.63;;
1601;SDS011;794;48.592;9.634;2024-03-02T01:28:15;20.87;;;13.07;;
1601;SDS011;794;48.592;9.634;2024-03-02T01:30:44;17.80;;;12.60;;
1601;SDS011;794;48.592;9.634;2024-03-02T01:33:10;18.97;;;13.23;;
1601;SDS011;794;48.592;9.634;2024-03-02T01:35:38;22.63;;;13.23;;
1601;SDS011;794;48.592;9.634;2024-03-02T01:38:06;22.27;;;13.03;;
1601;SDS011;794;48.592;9.634;2024-03-02T01:40:34;16.53;;;11.80;;
1601;SDS011;794;48.592;9.634;2024-03-02T01:43:01;17.37;;;10.60;;
1601;SDS011;794;48.592;9.634;2024-03-02T01:45:28;17.00;;;11.17;;
1601;SDS011;794;48.592;9.634;2024-03-02T01:47:55;22.77;;;13.20;;
1601;SDS011;794;48.592;9.634;2024-03-02T01:50:26;18.00;;;11.70;;
1601;SDS011;794;48.592;9.634;2024-03-02T01:52:55;17.57;;;10.10;;
1601;SDS011;794;48.592;9.634;2024-03-02T01:55:23;15.83;;;10.20;;
1601;SDS011;794;48.592;9.634;2024-03-02T01:57:50;16.53;;;12.33;;
1601;SDS011;794;48.592;9.634;2024-03-02T02:00:19;18.03;;;9.43;;
1601;SDS011;794;48.592;9.634;2024-03-02T02:02:47;19.50;;;11.53;;
1601;SDS011;794;48.592;9.634;2024-03-02T02:05:15;20.70;;;12.10;;
1601;SDS011;794;48.592;9.634;2024-03-02T02:07:42;16.40;;;11.10;;
1601;SDS011;794;48.592;9.634;2024-03-02T02:10:09;16.73;;;10.53;;
1601;SDS011;794;48.592;9.634;2024-03-02T02:12:38;17.57;;;11.67;;
1601;SDS011;794;48.592;9.634;2024-03-02T02:17:53;19.67;;;12.70;;
1601;SDS011;794;48.592;9.634;2024-03-02T02:20:21;15.57;;;11.10;;
1601;SDS011;794;48.592;9.634;2024-03-02T02:22:56;16.80;;;11.43;;
1601;SDS011;794;48.592;9.634;2024-03-02T02:25:24;18.57;;;11.90;;
1601;SDS011;794;48.592;9.634;2024-03-02T02:27:51;18.87;;;12.07;;
1601;SDS011;794;48.592;9.634;2024-03-02T02:30:18;16.47;;;12.20;;
1601;SDS011;794;48.592;9.634;2024-03-02T02:32:46;17.43;;;11.83;;
1601;SDS011;794;48.592;9.634;2024-03-02T02:35:13;19.37;;;11.30;;
1601;SDS011;794;48.592;9.634;2024-03-02T02:37:40;18.20;;;11.00;;
1601;SDS011;794;48.592;9.634;2024-03-02T02:40:10;16.77;;;10.47;;
1601;SDS011;794;48.592;9.634;2024-03-02T02:42:37;19.23;;;11.53;;
1601;SDS011;794;48.592;9.634;2024-03-02T02:45:05;21.00;;;12.60;;
1601;SDS011;794;48.592;9.634;2024-03-02T02:47:32;16.87;;;11.17;;
1601;SDS011;794;48.592;9.634;2024-03-02T02:50:00;20.87;;;12.17;;
1601;SDS011;794;48.592;9.634;2024-03-02T02:52:30;15.20;;;11.00;;
1601;SDS011;794;48.592;9.634;2024-03-02T02:55:00;21.30;;;12.80;;
1601;SDS011;794;48.592;9.634;2024-03-02T02:57:29;17.23;;;12.40;;
1601;SDS011;794;48.592;9.634;2024-03-02T03:00:00;18.80;;;12.43;;
1601;SDS011;794;48.592;9.634;2024-03-02T03:02:34;20.80;;;12.70;;
1601;SDS011;794;48.592;9.634;2024-03-02T03:05:01;23.80;;;12.87;;
1601;SDS011;794;48.592;9.634;2024-03-02T03:07:28;18.50;;;12.10;;
1601;SDS011;794;48.592;9.634;2024-03-02T03:09:55;17.93;;;11.80;;
1601;SDS011;794;48.592;9.634;2024-03-02T03:12:22;16.83;;;11.40;;
1601;SDS011;794;48.592;9.634;2024-03-02T03:14:51;19.90;;;12.40;;
1601;SDS011;794;48.592;9.634;2024-03-02T03:17:18;19.97;;;12.43;;
1601;SDS011;794;48.592;9.634;2024-03-02T03:19:45;18.07;;;13.30;;
1601;SDS011;794;48.592;9.634;2024-03-02T03:22:12;15.33;;;11.50;;
1601;SDS011;794;48.592;9.634;2024-03-02T03:24:39;20.53;;;11.50;;
1601;SDS011;794;48.592;9.634;2024-03-02T03:27:06;14.93;;;11.03;;
1601;SDS011;794;48.592;9.634;2024-03-02T03:29:34;17.37;;;13.10;;
1601;SDS011;794;48.592;9.634;2024-03-02T03:32:04;21.80;;;11.97;;
1601;SDS011;794;48.592;9.634;2024-03-02T03:34:32;21.70;;;13.40;;
1601;SDS011;794;48.592;9.634;2024-03-02T03:36:59;20.37;;;10.43;;
1601;SDS011;794;48.592;9.634;2024-03-02T03:39:26;17.67;;;11.53;;
1601;SDS011;794;48.592;9.634;2024-03-02T03:41:53;17.27;;;10.63;;
1601;SDS011;794;48.592;9.634;2024-03-02T03:44:20;14.60;;;10.63;;
1601;SDS011;794;48.592;9.634;2024-03-02T03:46:47;20.30;;;12.63;;
1601;SDS011;794;48.592;9.634;2024-03-02T03:49:15;13.47;;;10.53;;
1601;SDS011;794;48.592;9.634;2024-03-02T03:51:42;17.07;;;9.50;;
1601;SDS011;794;48.592;9.634;2024-03-02T03:54:09;21.13;;;11.03;;
1601;SDS011;794;48.592;9.634;2024-03-02T03:56:37;15.37;;;9.93;;
1601;SDS011;794;48.592;9.634;2024-03-02T03:59:04;14.30;;;10.23;;
1601;SDS011;794;48.592;9.634;2024-03-02T04:01:30;19.03;;;9.53;;
1601;SDS011;794;48.592;9.634;2024-03-02T04:03:58;14.20;;;9.73;;
1601;SDS011;794;48.592;9.634;2024-03-02T04:06:28;19.17;;;9.70;;
1601;SDS011;794;48.592;9.634;2024-03-02T04:08:55;14.23;;;10.53;;
1601;SDS011;794;48.592;9.634;2024-03-02T04:11:22;16.47;;;10.67;;
1601;SDS011;794;48.592;9.634;2024-03-02T04:13:49;16.90;;;11.77;;
1601;SDS011;794;48.592;9.634;2024-03-02T04:16:16;14.90;;;10.23;;
1601;SDS011;794;48.592;9.634;2024-03-02T04:18:43;19.30;;;12.17;;
1601;SDS011;794;48.592;9.634;2024-03-02T04:21:10;14.77;;;10.13;;
1601;SDS011;794;48.592;9.634;2024-03-02T04:23:38;17.90;;;10.27;;
1601;SDS011;794;48.592;9.634;2024-03-02T04:26:05;12.80;;;9.17;;
1601;SDS011;794;48.592;9.634;2024-03-02T04:28:32;14.30;;;9.40;;
1601;SDS011;794;48.592;9.634;2024-03-02T04:30:59;15.00;;;10.13;;
1601;SDS011;794;48.592;9.634;2024-03-02T04:33:26;19.67;;;9.13;;
1601;SDS011;794;48.592;9.634;2024-03-02T04:35:53;12.70;;;8.93;;
1601;SDS011;794;48.592;9.634;2024-03-02T04:38:20;14.97;;;10.17;;
1601;SDS011;794;48.592;9.634;2024-03-02T04:40:49;16.40;;;10.70;;
1601;SDS011;794;48.592;9.634;2024-03-02T04:43:16;13.87;;;9.57;;
1601;SDS011;794;48.592;9.634;2024-03-02T04:45:44;16.67;;;9.57;;
1601;SDS011;794;48.592;9.634;2024-03-02T04:48:11;17.23;;;10.70;;
1601;SDS011;794;48.592;9.634;2024-03-02T04:50:38;15.13;;;9.17;;
1601;SDS011;794;48.592;9.634;2024-03-02T04:53:04;13.63;;;8.93;;
1601;SDS011;794;48.592;9.634;2024-03-02T04:55:30;13.50;;;9.13;;
1601;SDS011;794;48.592;9.634;2024-03-02T04:58:30;14.27;;;8.60;;
1601;SDS011;794;48.592;9.634;2024-03-02T05:00:57;12.83;;;8.37;;
1601;SDS011;794;48.592;9.634;2024-03-02T05:03:24;13.90;;;8.20;;
1601;SDS011;794;48.592;9.634;2024-03-02T05:05:51;11.67;;;7.60;;
1601;SDS011;794;48.592;9.634;2024-03-02T05:08:18;11.77;;;8.23;;
1601;SDS011;794;48.592;9.634;2024-03-02T05:10:44;12.50;;;7.43;;
1601;SDS011;794;48.592;9.634;2024-03-02T05:13:11;11.73;;;8.10;;
1601;SDS011;794;48.592;9.634;2024-03-02T05:15:40;11.30;;;8.27;;
1601;SDS011;794;48.592;9.634;2024-03-02T05:18:07;11.90;;;8.63;;
1601;SDS011;794;48.592;9.634;2024-03-02T05:20:33;10.20;;;7.83;;
1601;SDS011;794;48.592;9.634;2024-03-02T05:23:00;11.00;;;7.27;;
1601;SDS011;794;48.592;9.634;2024-03-02T05:25:27;10.70;;;6.70;;
1601;SDS011;794;48.592;9.634;2024-03-02T05:27:54;10.87;;;7.60;;
1601;SDS011;794;48.592;9.634;2024-03-02T05:30:21;9.83;;;6.70;;
1601;SDS011;794;48.592;9.634;2024-03-02T05:32:49;14.53;;;7.50;;
1601;SDS011;794;48.592;9.634;2024-03-02T05:35:16;10.67;;;7.17;;
1601;SDS011;794;48.592;9.634;2024-03-02T05:37:43;13.37;;;7.80;;
1601;SDS011;794;48.592;9.634;2024-03-02T05:40:10;10.07;;;7.27;;
1601;SDS011;794;48.592;9.634;2024-03-02T05:42:38;9.50;;;7.70;;
1601;SDS011;794;48.592;9.634;2024-03-02T05:45:06;9.97;;;7.80;;
1601;SDS011;794;48.592;9.634;2024-03-02T05:47:34;12.87;;;7.77;;
1601;SDS011;794;48.592;9.634;2024-03-02T05:50:02;12.03;;;8.10;;
1601;SDS011;794;48.592;9.634;2024-03-02T05:52:30;12.17;;;8.30;;
1601;SDS011;794;48.592;9.634;2024-03-02T05:54:57;9.53;;;6.87;;
1601;SDS011;794;48.592;9.634;2024-03-02T05:57:24;9.10;;;6.90;;
1601;SDS011;794;48.592;9.634;2024-03-02T06:00:10;9.23;;;6.97;;
1601;SDS011;794;48.592;9.634;2024-03-02T06:02:38;11.73;;;6.83;;
1601;SDS011;794;48.592;9.634;2024-03-02T06:05:07;11.43;;;7.47;;
1601;SDS011;794;48.592;9.634;2024-03-02T06:07:34;11.53;;;6.90;;
1601;SDS011;794;48.592;9.634;2024-03-02T06:10:01;9.40;;;6.67;;
1601;SDS011;794;48.592;9.634;2024-03-02T06:12:30;10.73;;;6.97;;
1601;SDS011;794;48.592;9.634;2024-03-02T06:14:57;8.50;;;6.10;;
1601;SDS011;794;48.592;9.634;2024-03-02T06:17:24;10.13;;;6.87;;
1601;SDS011;794;48.592;9.634;2024-03-02T06:19:51;10.50;;;6.03;;
1601;SDS011;794;48.592;9.634;2024-03-02T06:22:19;10.60;;;6.60;;
1601;SDS011;794;48.592;9.634;2024-03-02T06:24:48;10.80;;;7.83;;
1601;SDS011;794;48.592;9.634;2024-03-02T06:27:14;11.57;;;8.07;;
1601;SDS011;794;48.592;9.634;2024-03-02T06:29:41;12.53;;;8.00;;
1601;SDS011;794;48.592;9.634;2024-03-02T06:32:08;11.47;;;8.00;;
1601;SDS011;794;48.592;9.634;2024-03-02T06:34:36;10.47;;;8.20;;
1601;SDS011;794;48.592;9.634;2024-03-02T06:37:03;9.17;;;7.20;;
1601;SDS011;794;48.592;9.634;2024-03-02T06:39:31;10.50;;;7.60;;
1601;SDS011;794;48.592;9.634;2024-03-02T06:41:59;13.40;;;7.77;;
1601;SDS011;794;48.592;9.634;2024-03-02T06:44:26;9.67;;;7.07;;
1601;SDS011;794;48.592;9.634;2024-03-02T06:46:53;10.67;;;7.67;;
1601;SDS011;794;48.592;9.634;2024-03-02T06:49:20;8.70;;;5.60;;
1601;SDS011;794;48.592;9.634;2024-03-02T06:51:47;8.80;;;6.17;;
1601;SDS011;794;48.592;9.634;2024-03-02T06:54:15;7.77;;;6.37;;
1601;SDS011;794;48.592;9.634;2024-03-02T06:56:43;8.00;;;6.00;;
1601;SDS011;794;48.592;9.634;2024-03-02T06:59:10;9.87;;;6.27;;
1601;SDS011;794;48.592;9.634;2024-03-02T07:01:37;8.50;;;6.20;;
1601;SDS011;794;48.592;9.634;2024-03-02T07:04:04;8.60;;;6.57;;
1601;SDS011;794;48.592;9.634;2024-03-02T07:06:31;11.37;;;7.80;;
1601;SDS011;794;48.592;9.634;2024-03-02T07:08:58;8.87;;;6.77;;
1601;SDS011;794;48.592;9.634;2024-03-02T07:11:25;10.07;;;7.00;;
1601;SDS011;794;48.592;9.634;2024-03-02T07:13:54;13.40;;;8.87;;
1601;SDS011;794;48.592;9.634;2024-03-02T07:16:21;13.83;;;9.87;;
1601;SDS011;794;48.592;9.634;2024-03-02T07:18:53;9.97;;;7.90;;
1601;SDS011;794;48.592;9.634;2024-03-02T07:21:21;8.83;;;7.00;;
1601;SDS011;794;48.592;9.634;2024-03-02T07:23:48;11.60;;;7.10;;
1601;SDS011;794;48.592;9.634;2024-03-02T07:26:15;11.73;;;7.50;;
1601;SDS011;794;48.592;9.634;2024-03-02T07:28:43;11.73;;;6.90;;
1601;SDS011;794;48.592;9.634;2024-03-02T07:31:12;8.80;;;6.60;;
1601;SDS011;794;48.592;9.634;2024-03-02T07:33:38;9.30;;;6.50;;
1601;SDS011;794;48.592;9.634;2024-03-02T07:36:06;12.50;;;7.53;;
1601;SDS011;794;48.592;9.634;2024-03-02T07:38:34;9.40;;;6.77;;
1601;SDS011;794;48.592;9.634;2024-03-02T07:41:00;8.70;;;6.70;;
1601;SDS011;794;48.592;9.634;2024-03-02T07:43:27;12.33;;;7.60;;
1601;SDS011;794;48.592;9.634;2024-03-02T07:45:55;10.10;;;7.10;;
1601;SDS011;794;48.592;9.634;2024-03-02T07:48:23;9.73;;;6.83;;
1601;SDS011;794;48.592;9.634;2024-03-02T07:50:52;8.13;;;6.20;;
1601;SDS011;794;48.592;9.634;2024-03-02T07:53:19;10.83;;;6.17;;
1601;SDS011;794;48.592;9.634;2024-03-02T07:55:46;9.40;;;7.03;;
1601;SDS011;794;48.592;9.634;2024-03-02T07:58:13;11.60;;;8.20;;
1601;SDS011;794;48.592;9.634;2024-03-02T08:00:40;7.03;;;5.93;;
1601;SDS011;794;48.592;9.634;2024-03-02T08:03:07;8.60;;;6.90;;
1601;SDS011;794;48.592;9.634;2024-03-02T08:05:37;8.43;;;6.00;;
1601;SDS011;794;48.592;9.634;2024-03-02T08:08:05;6.33;;;5.20;;
1601;SDS011;794;48.592;9.634;2024-03-02T08:10:31;7.80;;;6.70;;
1601;SDS011;794;48.592;9.634;2024-03-02T08:12:59;10.00;;;7.40;;
1601;SDS011;794;48.592;9.634;2024-03-02T08:15:26;7.50;;;6.23;;
1601;SDS011;794;48.592;9.634;2024-03-02T08:17:53;6.83;;;5.80;;
1601;SDS011;794;48.592;9.634;2024-03-02T08:20:21;7.60;;;5.90;;
1601;SDS011;794;48.592;9.634;2024-03-02T08:22:50;6.10;;;5.43;;
1601;SDS011;794;48.592;9.634;2024-03-02T08:25:20;3.63;;;3.33;;
1601;SDS011;794;48.592;9.634;2024-03-02T08:27:47;4.70;;;3.40;;
1601;SDS011;794;48.592;9.634;2024-03-02T08:30:14;2.80;;;2.53;;
1601;SDS011;794;48.592;9.634;2024-03-02T08:32:43;3.50;;;3.10;;
1601;SDS011;794;48.592;9.634;2024-03-02T08:35:12;2.80;;;2.60;;
1601;SDS011;794;48.592;9.634;2024-03-02T08:37:39;3.50;;;2.73;;
1601;SDS011;794;48.592;9.634;2024-03-02T08:40:09;2.77;;;2.57;;
1601;SDS011;794;48.592;9.634;2024-03-02T08:42:37;3.23;;;2.53;;
1601;SDS011;794;48.592;9.634;2024-03-02T08:45:04;3.97;;;3.03;;
1601;SDS011;794;48.592;9.634;2024-03-02T08:47:32;2.87;;;2.60;;
1601;SDS011;794;48.592;9.634;2024-03-02T08:49:59;2.67;;;2.47;;
1601;SDS011;794;48.592;9.634;2024-03-02T08:52:27;2.60;;;2.40;;
1601;SDS011;794;48.592;9.634;2024-03-02T08:54:54;2.87;;;2.63;;
1601;SDS011;794;48.592;9.634;2024-03-02T08:57:22;3.10;;;2.77;;
1601;SDS011;794;48.592;9.634;2024-03-02T08:59:49;5.17;;;2.50;;
1601;SDS011;794;48.592;9.634;2024-03-02T09:02:16;3.00;;;2.37;;
1601;SDS011;794;48.592;9.634;2024-03-02T09:04:44;3.23;;;2.30;;
1601;SDS011;794;48.592;9.634;2024-03-02T09:07:11;1.93;;;1.70;;
1601;SDS011;794;48.592;9.634;2024-03-02T09:09:38;1.97;;;1.80;;
1601;SDS011;794;48.592;9.634;2024-03-02T09:12:06;1.90;;;1.80;;
1601;SDS011;794;48.592;9.634;2024-03-02T09:14:34;2.43;;;2.23;;
1601;SDS011;794;48.592;9.634;2024-03-02T09:17:03;2.10;;;1.90;;
1601;SDS011;794;48.592;9.634;2024-03-02T09:19:30;2.17;;;1.97;;
1601;SDS011;794;48.592;9.634;2024-03-02T09:21:57;1.60;;;1.50;;
1601;SDS011;794;48.592;9.634;2024-03-02T09:24:24;1.80;;;1.57;;
1601;SDS011;794;48.592;9.634;2024-03-02T09:26:52;1.67;;;1.40;;
1601;SDS011;794;48.592;9.634;2024-03-02T09:29:19;1.97;;;1.77;;
1601;SDS011;794;48.592;9.634;2024-03-02T09:31:53;2.23;;;2.03;;
1601;SDS011;794;48.592;9.634;2024-03-02T09:34:20;2.43;;;2.23;;
1601;SDS011;794;48.592;9.634;2024-03-02T09:36:50;2.57;;;2.37;;
1601;SDS011;794;48.592;9.634;2024-03-02T09:39:23;2.67;;;2.47;;
1601;SDS011;794;48.592;9.634;2024-03-02T09:41:51;2.30;;;2.10;;
1601;SDS011;794;48.592;9.634;2024-03-02T09:44:18;4.60;;;2.20;;
1601;SDS011;794;48.592;9.634;2024-03-02T09:46:48;2.50;;;2.30;;
1601;SDS011;794;48.592;9.634;2024-03-02T09:49:17;2.73;;;2.53;;
1601;SDS011;794;48.592;9.634;2024-03-02T09:51:44;3.00;;;2.70;;
1601;SDS011;794;48.592;9.634;2024-03-02T09:54:13;1.37;;;1.27;;
1601;SDS011;794;48.592;9.634;2024-03-02T09:56:42;2.40;;;2.20;;
1601;SDS011;794;48.592;9.634;2024-03-02T09:59:09;2.17;;;1.87;;
1601;SDS011;794;48.592;9.634;2024-03-02T10:01:38;4.83;;;4.43;;
1601;SDS011;794;48.592;9.634;2024-03-02T10:04:05;3.17;;;2.60;;
1601;SDS011;794;48.592;9.634;2024-03-02T10:06:34;2.90;;;2.53;;
1601;SDS011;794;48.592;9.634;2024-03-02T10:09:01;3.90;;;2.60;;
1601;SDS011;794;48.592;9.634;2024-03-02T10:11:28;2.80;;;2.30;;
1601;SDS011;794;48.592;9.634;2024-03-02T10:14:05;2.70;;;2.17;;
1601;SDS011;794;48.592;9.634;2024-03-02T10:16:36;3.20;;;2.90;;
1601;SDS011;794;48.592;9.634;2024-03-02T10:19:16;2.73;;;2.50;;
1601;SDS011;794;48.592;9.634;2024-03-02T10:21:45;3.67;;;2.83;;
1601;SDS011;794;48.592;9.634;2024-03-02T10:24:14;4.00;;;3.10;;
1601;SDS011;794;48.592;9.634;2024-03-02T10:26:41;3.30;;;3.00;;
1601;SDS011;794;48.592;9.634;2024-03-02T10:29:08;5.77;;;3.20;;
1601;SDS011;794;48.592;9.634;2024-03-02T10:31:36;2.67;;;2.47;;
1601;SDS011;794;48.592;9.634;2024-03-02T10:34:03;3.77;;;3.20;;
1601;SDS011;794;48.592;9.634;2024-03-02T10:36:31;3.00;;;2.67;;
1601;SDS011;794;48.592;9.634;2024-03-02T10:39:01;3.73;;;3.13;;
1601;SDS011;794;48.592;9.634;2024-03-02T10:41:29;4.00;;;3.57;;
1601;SDS011;794;48.592;9.634;2024-03-02T10:43:56;3.23;;;2.60;;
1601;SDS011;794;48.592;9.634;2024-03-02T10:46:26;4.10;;;2.40;;
1601;SDS011;794;48.592;9.634;2024-03-02T10:48:55;3.27;;;2.37;;
1601;SDS011;794;48.592;9.634;2024-03-02T10:51:24;2.43;;;2.17;;
1601;SDS011;794;48.592;9.634;2024-03-02T10:53:52;2.53;;;2.20;;
1601;SDS011;794;48.592;9.634;2024-03-02T10:56:25;3.20;;;2.50;;
1601;SDS011;794;48.592;9.634;2024-03-02T10:58:55;2.40;;;2.20;;
1601;SDS011;794;48.592;9.634;2024-03-02T11:01:29;2.50;;;2.30;;
1601;SDS011;794;48.592;9.634;2024-03-02T11:03:57;2.63;;;2.43;;
1601;SDS011;794;48.592;9.634;2024-03-02T11:06:25;3.70;;;3.30;;
1601;SDS011;794;48.592;9.634;2024-03-02T11:08:59;3.10;;;2.83;;
1601;SDS011;794;48.592;9.634;2024-03-02T11:11:32;3.50;;;3.07;;
1601;SDS011;794;48.592;9.634;2024-03-02T11:14:04;3.47;;;2.90;;
1601;SDS011;794;48.592;9.634;2024-03-02T11:16:34;4.17;;;3.77;;
1601;SDS011;794;48.592;9.634;2024-03-02T11:19:04;4.53;;;3.77;;
1601;SDS011;794;48.592;9.634;2024-03-02T11:21:32;4.10;;;3.80;;
1601;SDS011;794;48.592;9.634;2024-03-02T11:24:00;3.70;;;2.83;;
1601;SDS011;794;48.592;9.634;2024-03-02T11:26:48;3.40;;;3.10;;
1601;SDS011;794;48.592;9.634;2024-03-02T11:29:25;3.30;;;3.00;;
1601;SDS011;794;48.592;9.634;2024-03-02T11:32:23;2.70;;;2.40;;
1601;SDS011;794;48.592;9.634;2024-03-02T11:34:50;4.43;;;3.20;;
1601;SDS011;794;48.592;9.634;2024-03-02T11:37:18;3.77;;;3.47;;
1601;SDS011;794;48.592;9.634;2024-03-02T11:39:46;3.67;;;3.37;;
1601;SDS011;794;48.592;9.634;2024-03-02T11:42:17;4.40;;;3.33;;
1601;SDS011;794;48.592;9.634;2024-03-02T11:44:45;4.60;;;4.20;;
1601;SDS011;794;48.592;9.634;2024-03-02T11:47:14;4.23;;;3.83;;
1601;SDS011;794;48.592;9.634;2024-03-02T11:49:42;5.07;;;3.50;;
1601;SDS011;794;48.592;9.634;2024-03-02T11:52:11;3.40;;;3.10;;
1601;SDS011;794;48.592;9.634;2024-03-02T11:54:43;4.00;;;2.83;;
1601;SDS011;794;48.592;9.634;2024-03-02T12:00:31;4.17;;;3.33;;
1601;SDS011;794;48.592;9.634;2024-03-02T12:02:59;3.90;;;3.50;;
1601;SDS011;794;48.592;9.634;2024-03-02T12:05:28;2.67;;;2.47;;
1601;SDS011;794;48.592;9.634;2024-03-02T12:07:56;3.00;;;2.77;;
1601;SDS011;794;48.592;9.634;2024-03-02T12:10:23;3.77;;;3.40;;
1601;SDS011;794;48.592;9.634;2024-03-02T12:12:55;2.83;;;2.63;;
1601;SDS011;794;48.592;9.634;2024-03-02T12:15:23;4.30;;;2.50;;
1601;SDS011;794;48.592;9.634;2024-03-02T12:17:56;3.40;;;3.10;;
1601;SDS011;794;48.592;9.634;2024-03-02T12:20:25;2.57;;;2.37;;
1601;SDS011;794;48.592;9.634;2024-03-02T12:22:54;2.40;;;2.20;;
1601;SDS011;794;48.592;9.634;2024-03-02T12:25:22;2.20;;;2.00;;
1601;SDS011;794;48.592;9.634;2024-03-02T12:27:50;3.10;;;2.10;;
1601;SDS011;794;48.592;9.634;2024-03-02T12:30:19;3.37;;;2.50;;
1601;SDS011;794;48.592;9.634;2024-03-02T12:32:47;2.70;;;2.50;;
1601;SDS011;794;48.592;9.634;2024-03-02T12:35:17;3.17;;;2.10;;
1601;SDS011;794;48.592;9.634;2024-03-02T12:37:44;3.00;;;2.80;;
1601;SDS011;794;48.592;9.634;2024-03-02T12:40:12;2.30;;;1.90;;
1601;SDS011;794;48.592;9.634;2024-03-02T12:42:40;2.10;;;1.60;;
1601;SDS011;794;48.592;9.634;2024-03-02T12:45:08;2.43;;;2.10;;
1601;SDS011;794;48.592;9.634;2024-03-02T12:48:08;2.00;;;1.80;;
1601;SDS011;794;48.592;9.634;2024-03-02T12:50:36;1.90;;;1.60;;
1601;SDS011;794;48.592;9.634;2024-03-02T12:53:03;1.80;;;1.70;;
1601;SDS011;794;48.592;9.634;2024-03-02T12:55:31;4.10;;;2.10;;
1601;SDS011;794;48.592;9.634;2024-03-02T12:57:59;3.57;;;1.90;;
1601;SDS011;794;48.592;9.634;2024-03-02T13:00:28;2.40;;;1.53;;
1601;SDS011;794;48.592;9.634;2024-03-02T13:02:58;1.57;;;1.40;;
1601;SDS011;794;48.592;9.634;2024-03-02T13:05:29;1.93;;;1.70;;
1601;SDS011;794;48.592;9.634;2024-03-02T13:07:58;5.83;;;1.80;;
1601;SDS011;794;48.592;9.634;2024-03-02T13:10:25;1.97;;;1.40;;
1601;SDS011;794;48.592;9.634;2024-03-02T13:12:55;1.90;;;1.70;;
1601;SDS011;794;48.592;9.634;2024-03-02T13:15:22;1.30;;;1.20;;
1601;SDS011;794;48.592;9.634;2024-03-02T13:17:49;2.30;;;1.40;;
1601;SDS011;794;48.592;9.634;2024-03-02T13:20:16;1.47;;;1.23;;
1601;SDS011;794;48.592;9.634;2024-03-02T13:22:44;3.23;;;1.17;;
1601;SDS011;794;48.592;9.634;2024-03-02T13:25:13;3.20;;;2.07;;
1601;SDS011;794;48.592;9.634;2024-03-02T13:27:40;2.33;;;2.13;;
1601;SDS011;794;48.592;9.634;2024-03-02T13:30:07;2.63;;;2.10;;
1601;SDS011;794;48.592;9.634;2024-03-02T13:32:34;2.77;;;1.90;;
1601;SDS011;794;48.592;9.634;2024-03-02T13:35:01;3.60;;;2.20;;
1601;SDS011;794;48.592;9.634;2024-03-02T13:37:29;2.20;;;2.00;;
1601;SDS011;794;48.592;9.634;2024-03-02T13:39:59;1.73;;;1.60;;
1601;SDS011;794;48.592;9.634;2024-03-02T13:42:45;2.23;;;1.90;;
1601;SDS011;794;48.592;9.634;2024-03-02T13:45:12;2.40;;;2.07;;
1601;SDS011;794;48.592;9.634;2024-03-02T13:47:39;4.00;;;1.87;;
1601;SDS011;794;48.592;9.634;2024-03-02T13:50:06;2.33;;;2.00;;
1601;SDS011;794;48.592;9.634;2024-03-02T13:52:33;2.63;;;1.70;;
1601;SDS011;794;48.592;9.634;2024-03-02T13:55:00;2.53;;;2.07;;
1601;SDS011;794;48.592;9.634;2024-03-02T13:57:27;3.30;;;2.50;;
1601;SDS011;794;48.592;9.634;2024-03-02T13:59:56;2.87;;;2.60;;
1601;SDS011;794;48.592;9.634;2024-03-02T14:02:23;5.20;;;3.50;;
1601;SDS011;794;48.592;9.634;2024-03-02T14:04:51;4.47;;;3.57;;
1601;SDS011;794;48.592;9.634;2024-03-02T14:07:18;4.10;;;3.03;;
1601;SDS011;794;48.592;9.634;2024-03-02T14:09:44;3.70;;;3.20;;
1601;SDS011;794;48.592;9.634;2024-03-02T14:12:12;3.57;;;3.10;;
1601;SDS011;794;48.592;9.634;2024-03-02T14:14:39;3.03;;;2.73;;
1601;SDS011;794;48.592;9.634;2024-03-02T14:17:07;3.80;;;2.90;;
1601;SDS011;794;48.592;9.634;2024-03-02T14:19:39;3.27;;;2.97;;
1601;SDS011;794;48.592;9.634;2024-03-02T14:22:06;3.57;;;2.93;;
1601;SDS011;794;48.592;9.634;2024-03-02T14:24:33;2.77;;;2.57;;
1601;SDS011;794;48.592;9.634;2024-03-02T14:27:00;3.03;;;2.40;;
1601;SDS011;794;48.592;9.634;2024-03-02T14:29:29;3.10;;;2.40;;
1601;SDS011;794;48.592;9.634;2024-03-02T14:31:58;2.07;;;1.60;;
1601;SDS011;794;48.592;9.634;2024-03-02T14:34:43;3.10;;;2.30;;
1601;SDS011;794;48.592;9.634;2024-03-02T14:37:11;4.30;;;2.13;;
1601;SDS011;794;48.592;9.634;2024-03-02T14:39:39;2.80;;;2.57;;
1601;SDS011;794;48.592;9.634;2024-03-02T14:42:06;3.20;;;2.90;;
1601;SDS011;794;48.592;9.634;2024-03-02T14:44:33;3.10;;;2.90;;
1601;SDS011;794;48.592;9.634;2024-03-02T14:47:00;3.80;;;3.43;;
1601;SDS011;794;48.592;9.634;2024-03-02T14:49:29;7.67;;;2.80;;
1601;SDS011;794;48.592;9.634;2024-03-02T14:51:57;4.33;;;3.90;;
1601;SDS011;794;48.592;9.634;2024-03-02T14:54:24;3.77;;;2.87;;
1601;SDS011;794;48.592;9.634;2024-03-02T14:56:51;3.30;;;3.00;;
1601;SDS011;794;48.592;9.634;2024-03-02T14:59:18;3.53;;;3.23;;
1601;SDS011;794;48.592;9.634;2024-03-02T15:01:45;3.20;;;3.00;;
1601;SDS011;794;48.592;9.634;2024-03-02T15:04:13;4.00;;;3.70;;
1601;SDS011;794;48.592;9.634;2024-03-02T15:06:41;5.27;;;3.87;;
1601;SDS011;794;48.592;9.634;2024-03-02T15:09:09;3.90;;;3.50;;
1601;SDS011;794;48.592;9.634;2024-03-02T15:11:37;4.33;;;3.23;;
1601;SDS011;794;48.592;9.634;2024-03-02T15:14:04;4.10;;;3.80;;
1601;SDS011;794;48.592;9.634;2024-03-02T15:16:31;4.20;;;3.30;;
1601;SDS011;794;48.592;9.634;2024-03-02T15:18:59;6.17;;;4.20;;
1601;SDS011;794;48.592;9.634;2024-03-02T15:21:26;4.13;;;3.63;;
1601;SDS011;794;48.592;9.634;2024-03-02T15:23:53;4.67;;;4.27;;
1601;SDS011;794;48.592;9.634;2024-03-02T15:26:21;5.03;;;4.60;;
1601;SDS011;794;48.592;9.634;2024-03-02T15:28:48;4.73;;;4.10;;
1601;SDS011;794;48.592;9.634;2024-03-02T15:31:14;4.60;;;4.20;;
1601;SDS011;794;48.592;9.634;2024-03-02T15:33:42;5.60;;;5.10;;
1601;SDS011;794;48.592;9.634;2024-03-02T15:36:09;3.53;;;3.23;;